Grant, NE

4:32 AM MDT on July 12, 2014 (GMT -0600)
Searle (KOGA) Elev 3278 ft | 41.12 °N, 101.77 °W | Change Station

Current weather conditions updated 17 minutes ago

Overcast
Overcast
66 °F
Feels Like 66 °F
N
4
Wind Variable Wind from North

Today is forecast to be Cooler than yesterday. Morning showers and thunderstorms.

Today
High -- | Low -- °F
--% Chance of Precip.
Yesterday
High -- | Low -- °F
Precip. -- in
5:25 AM 8:18 PM
Full, 100% visible
Pressure 30.06 in
Visibility 10.0 miles
Clouds Overcast 800 ft
Dew Point 65 °F
Humidity 94%
Rainfall 0.03 in
Snow Depth Not available.
UV 0 out of 12
Pollen 5.50 out of 12
Air Quality Not available.
Flu Activity Sporadic
METAR KOGA 121015Z AUTO 36003KT 10SM OVC008 19/18 A3006 RMK AO2 T01910181

More Conditions Fewer Conditions

Pressure 30.06 in
Visibility 10.0 miles
Clouds Overcast 800 ft
Dew Point 65 °F
Humidity 94%
Rainfall 0.03 in
Snow Depth Not available.
UV 0 out of 12
Pollen 5.50 out of 12
Air Quality Not available.
Flu Activity Sporadic
METAR KOGA 121015Z AUTO 36003KT 10SM OVC008 19/18 A3006 RMK AO2 T01910181

More Conditions Fewer Conditions

10-Day Weather Forecast

Almanac

Astronomy

Jul. 12, 2014 Rise Set
Actual Time 5:25 AM MDT 8:18 PM MDT
Civil Twilight 4:53 AM MDT 8:51 PM MDT
Nautical Twilight 4:11 AM MDT 9:32 PM MDT
Astronomical Twilight 3:24 AM MDT 10:20 PM MDT
Moon 8:21 PM MDT 5:48 AM MDT
Length of Visible Light 15h 58m
Length of Day
14h 52m
Tomorrow will be 1m 15s shorter.
Full, 100% of the Moon is Illuminated
Today
Full
Jul 12
Full
Jul 18
Last Quarter
Jul 26
New
Aug 3
First Quarter

Today's Extremes

State Highs State Lows

Community

WunderPhotos

Upload Photos

1,732,768 photos uploaded!

Nearby

Snow Depth

Station Depth Elevation
No new snow has been reported.

Earthquake Activity

City Distance Mag. Time & Date
No recent earthquake activity has been reported nearby.
Minimum magnitude displayed is 2.5.

Coastal Water Temperatures

Place Temperature
No Stations Reporting

Nearby Weather Stations

Station Location Temp. Dew Point Humidity Wind Precip. Elev Updated Type
Sisco Fertilizer, Elsie, NE 67.2 °F 66 °F 96% South  at  0.0 mph 0.00 in / hr 3415 ft 4:32 AM MDT Rapid Fire
MesoWest BRULE1 , Brule, NE 67 °F - - North  at  - 0.00 in / hr 3281 ft 3:00 AM MDT MADIS
Ogallala, NE 67.8 °F 66 °F 93% NNW  at  0.0 mph 0.00 in / hr 3243 ft 4:30 AM MDT Normal
MesoWest OGALWS , Ogallala, NE 64 °F - - NNE  at  5 mph 0.00 in / hr 3206 ft 3:00 AM MDT MADIS
MesoWest OGALA2 , Ogallala, NE 62 °F - - North  at  - 0.00 in / hr 3172 ft 3:00 AM MDT MADIS
MesoWest BIGSWS , Big Springs, NE 68 °F - - North  at  0 mph 0.00 in / hr 3356 ft 3:00 AM MDT MADIS

Show More Stations Show Fewer Stations